Time;durP1;ratioP1;P1;durP2;ratioP2;P2;SDS_P1;SDS_P2;PMS_P1;PMS_P2;Temp;Humidity;BMP_temperature;BMP_pressure;BME280_temperature;BME280_humidity;BME280_pressure;Samples;Min_cycle;Max_cycle;Signal;HPM_P1;HPM_P2
2023/10/22 00:02:11;;;;;;;;;;;25.60;86.50;;;;;;5110384;28;20344;-73
2023/10/22 00:04:40;;;;;;;;;;;25.70;85.90;;;;;;5093626;28;19920;-73
2023/10/22 00:07:07;;;;;;;;;;;25.80;86.50;;;;;;5093582;28;19943;-70
2023/10/22 00:09:34;;;;;;;;;;;25.90;85.80;;;;;;5092613;28;19920;-66
2023/10/22 00:12:01;;;;;;;;;;;25.90;85.60;;;;;;5092626;28;20369;-74
2023/10/22 00:14:27;;;;;;;;;;;26.00;85.30;;;;;;5092913;28;19909;-68
2023/10/22 00:16:54;;;;;;;;;;;26.20;84.00;;;;;;5106081;28;19908;-71
2023/10/22 00:19:20;;;;;;;;;;;26.30;83.90;;;;;;5102116;28;19991;-66
2023/10/22 00:21:47;;;;;;;;;;;26.40;82.80;;;;;;5098178;28;19994;-69
2023/10/22 00:24:14;;;;;;;;;;;26.50;82.60;;;;;;5112944;28;19920;-71
2023/10/22 00:26:41;;;;;;;;;;;26.60;82.10;;;;;;5112878;28;19943;-73
2023/10/22 00:29:08;;;;;;;;;;;26.70;82.20;;;;;;5094807;28;19999;-69
2023/10/22 00:31:34;;;;;;;;;;;26.90;80.60;;;;;;5112757;28;19911;-67
2023/10/22 00:34:01;;;;;;;;;;;26.90;81.00;;;;;;5112706;28;19939;-70
2023/10/22 00:36:28;;;;;;;;;;;27.00;80.50;;;;;;5106564;28;19930;-69
2023/10/22 00:38:55;;;;;;;;;;;27.10;80.20;;;;;;5096589;28;20382;-73
2023/10/22 00:41:21;;;;;;;;;;;27.20;79.00;;;;;;5111292;28;19914;-69
2023/10/22 00:43:48;;;;;;;;;;;27.30;78.90;;;;;;5111186;28;19951;-67
2023/10/22 00:46:18;;;;;;;;;;;27.50;79.00;;;;;;5112407;28;20002;-78
2023/10/22 00:48:45;;;;;;;;;;;27.70;78.30;;;;;;5112088;28;19959;-74
2023/10/22 00:51:12;;;;;;;;;;;27.80;78.70;;;;;;5101546;28;19934;-73
2023/10/22 00:53:38;;;;;;;;;;;28.00;77.20;;;;;;5095152;28;19912;-72
2023/10/22 00:56:05;;;;;;;;;;;28.10;77.30;;;;;;5112040;28;20352;-72
2023/10/22 00:58:35;;;;;;;;;;;28.20;76.50;;;;;;5114277;28;19952;-77
2023/10/22 01:01:06;;;;;;;;;;;28.30;76.90;;;;;;5115687;28;19908;-72
2023/10/22 01:03:33;;;;;;;;;;;28.40;75.80;;;;;;5115427;28;19919;-76
2023/10/22 01:06:02;;;;;;;;;;;28.40;75.40;;;;;;5110879;28;20621;-72
2023/10/22 01:08:28;;;;;;;;;;;28.50;74.90;;;;;;5115143;28;19953;-72
2023/10/22 01:11:04;;;;;;;;;;;28.50;74.40;;;;;;5103281;28;19916;-76
2023/10/22 01:13:30;;;;;;;;;;;28.50;74.20;;;;;;5095024;28;19920;-73
2023/10/22 01:15:57;;;;;;;;;;;28.70;75.10;;;;;;5099581;28;19969;-73
2023/10/22 01:18:24;;;;;;;;;;;28.80;74.30;;;;;;5098863;28;20406;-70
2023/10/22 01:20:51;;;;;;;;;;;28.90;74.40;;;;;;5115345;28;19907;-67
2023/10/22 01:23:17;;;;;;;;;;;29.10;73.60;;;;;;5115302;28;20470;-72
2023/10/22 01:25:44;;;;;;;;;;;29.20;73.30;;;;;;5115337;28;20006;-71
2023/10/22 01:28:11;;;;;;;;;;;29.50;74.40;;;;;;5113668;28;19912;-74
2023/10/22 01:30:37;;;;;;;;;;;29.70;74.60;;;;;;5109174;28;19962;-69
2023/10/22 01:33:04;;;;;;;;;;;29.90;76.00;;;;;;5111600;28;19907;-73
2023/10/22 01:35:31;;;;;;;;;;;30.00;73.90;;;;;;5108995;28;19912;-71
2023/10/22 01:37:57;;;;;;;;;;;30.20;74.00;;;;;;5110073;28;19998;-68
2023/10/22 01:40:24;;;;;;;;;;;30.20;73.00;;;;;;5109294;28;19912;-74
2023/10/22 01:42:51;;;;;;;;;;;30.20;73.00;;;;;;5100798;27;19915;-69
2023/10/22 01:45:19;;;;;;;;;;;30.10;72.90;;;;;;5098257;28;19923;-68
2023/10/22 01:47:46;;;;;;;;;;;30.00;73.60;;;;;;5112567;28;19920;-68
2023/10/22 01:50:13;;;;;;;;;;;29.90;73.00;;;;;;5113594;28;19911;-72
2023/10/22 01:52:40;;;;;;;;;;;30.00;73.70;;;;;;5114322;28;20269;-68
2023/10/22 01:55:07;;;;;;;;;;;29.90;72.40;;;;;;5114000;28;19908;-71
2023/10/22 01:57:33;;;;;;;;;;;30.00;74.70;;;;;;5113944;28;19955;-73
2023/10/22 02:00:00;;;;;;;;;;;30.20;73.90;;;;;;5108781;28;19919;-76
2023/10/22 02:02:27;;;;;;;;;;;30.30;72.00;;;;;;5104384;28;20429;-67
2023/10/22 02:04:53;;;;;;;;;;;30.40;71.90;;;;;;5112563;28;19916;-70
2023/10/22 02:07:20;;;;;;;;;;;30.40;72.40;;;;;;5112353;27;19912;-67
2023/10/22 02:09:46;;;;;;;;;;;30.40;71.20;;;;;;5098776;28;19918;-71
2023/10/22 02:12:13;;;;;;;;;;;30.30;71.20;;;;;;5112380;27;19919;-70
2023/10/22 02:14:40;;;;;;;;;;;30.40;71.00;;;;;;5095972;28;20377;-66
2023/10/22 02:17:06;;;;;;;;;;;30.50;70.60;;;;;;5110398;28;19919;-67
2023/10/22 02:19:33;;;;;;;;;;;30.50;71.20;;;;;;5113571;28;19939;-69
2023/10/22 02:22:00;;;;;;;;;;;30.40;70.80;;;;;;5105527;28;20288;-65
2023/10/22 02:24:28;;;;;;;;;;;30.40;71.30;;;;;;5099354;28;19927;-72
2023/10/22 02:26:55;;;;;;;;;;;30.70;72.10;;;;;;5107917;28;19930;-69
2023/10/22 02:29:21;;;;;;;;;;;31.00;71.10;;;;;;5113910;28;19908;-69
2023/10/22 02:31:48;;;;;;;;;;;31.20;69.90;;;;;;5109292;28;19918;-71
2023/10/22 02:34:14;;;;;;;;;;;31.50;71.40;;;;;;5097950;28;19919;-73
2023/10/22 02:36:41;;;;;;;;;;;31.80;70.20;;;;;;5110656;28;19912;-70
2023/10/22 02:39:08;;;;;;;;;;;32.20;67.80;;;;;;5112726;28;19977;-73
2023/10/22 02:41:35;;;;;;;;;;;32.50;67.50;;;;;;5113079;28;19908;-65
2023/10/22 02:44:01;;;;;;;;;;;33.00;66.70;;;;;;5093614;28;19935;-69
2023/10/22 02:46:28;;;;;;;;;;;33.50;66.10;;;;;;5101697;28;19912;-68
2023/10/22 02:48:54;;;;;;;;;;;33.80;64.90;;;;;;5107719;28;19926;-69
2023/10/22 02:51:22;;;;;;;;;;;34.30;64.90;;;;;;5111853;28;19937;-75
2023/10/22 02:53:48;;;;;;;;;;;35.00;64.20;;;;;;5106643;28;19911;-71
2023/10/22 02:56:15;;;;;;;;;;;35.50;63.20;;;;;;5093165;28;19912;-69
2023/10/22 02:58:42;;;;;;;;;;;36.00;61.90;;;;;;5112007;28;19908;-67
2023/10/22 03:01:09;;;;;;;;;;;36.80;63.40;;;;;;5110541;28;20287;-69
2023/10/22 03:03:40;;;;;;;;;;;37.70;63.70;;;;;;5110464;28;19927;-66
2023/10/22 03:06:08;;;;;;;;;;;38.90;59.20;;;;;;5111852;27;19956;-73
2023/10/22 03:08:35;;;;;;;;;;;39.20;58.20;;;;;;5111937;28;19976;-73
2023/10/22 03:11:03;;;;;;;;;;;39.50;57.80;;;;;;5112036;28;19947;-71
2023/10/22 03:13:29;;;;;;;;;;;40.40;55.80;;;;;;5101631;28;20383;-68
2023/10/22 03:15:58;;;;;;;;;;;40.60;54.70;;;;;;5111187;28;20257;-70
2023/10/22 03:18:24;;;;;;;;;;;40.80;56.10;;;;;;5094759;28;19912;-66
2023/10/22 03:20:51;;;;;;;;;;;41.30;54.50;;;;;;5093962;27;19919;-72
2023/10/22 03:23:18;;;;;;;;;;;41.10;53.10;;;;;;5095105;28;20276;-68
2023/10/22 03:25:45;;;;;;;;;;;41.50;53.90;;;;;;5092280;27;19981;-69
2023/10/22 03:28:11;;;;;;;;;;;41.90;52.80;;;;;;5111448;28;19939;-69
2023/10/22 03:30:38;;;;;;;;;;;41.80;53.10;;;;;;5111077;28;19996;-75
2023/10/22 03:33:05;;;;;;;;;;;42.50;52.20;;;;;;5107348;28;19930;-76
2023/10/22 03:35:32;;;;;;;;;;;42.30;49.90;;;;;;5108013;28;19923;-72
2023/10/22 03:37:58;;;;;;;;;;;42.10;50.70;;;;;;5110387;28;19908;-67
2023/10/22 03:40:25;;;;;;;;;;;42.70;51.50;;;;;;5111211;28;19954;-66
2023/10/22 03:42:52;;;;;;;;;;;42.60;51.60;;;;;;5104048;28;19915;-67
2023/10/22 03:45:18;;;;;;;;;;;42.70;50.50;;;;;;5107017;28;20304;-71
2023/10/22 03:47:45;;;;;;;;;;;42.80;49.90;;;;;;5110170;28;19923;-70
2023/10/22 03:50:11;;;;;;;;;;;42.30;50.70;;;;;;5102072;28;20571;-66
2023/10/22 03:52:38;;;;;;;;;;;42.00;51.00;;;;;;5105289;28;19920;-70
2023/10/22 03:55:05;;;;;;;;;;;41.80;51.60;;;;;;5107610;28;19962;-75
2023/10/22 03:57:31;;;;;;;;;;;41.90;51.20;;;;;;5110908;28;19912;-67
2023/10/22 03:59:58;;;;;;;;;;;41.60;50.80;;;;;;5112195;28;20026;-72
2023/10/22 04:02:25;;;;;;;;;;;41.10;50.80;;;;;;5109328;28;19920;-73
2023/10/22 04:04:51;;;;;;;;;;;40.60;51.80;;;;;;5091749;28;20380;-71
2023/10/22 04:07:18;;;;;;;;;;;40.80;51.40;;;;;;5103866;28;19908;-69
2023/10/22 04:09:45;;;;;;;;;;;42.10;52.00;;;;;;5112290;28;19919;-72
2023/10/22 04:12:11;;;;;;;;;;;41.50;51.10;;;;;;5106061;28;19916;-67
2023/10/22 04:14:38;;;;;;;;;;;41.60;51.60;;;;;;5091174;28;19914;-73
2023/10/22 04:17:04;;;;;;;;;;;42.90;49.20;;;;;;5108205;28;20090;-71
2023/10/22 04:19:31;;;;;;;;;;;42.60;51.00;;;;;;5111478;28;19912;-71
2023/10/22 04:21:58;;;;;;;;;;;42.70;51.30;;;;;;5105588;28;19953;-71
2023/10/22 04:24:24;;;;;;;;;;;43.00;51.10;;;;;;5093691;28;20041;-65
2023/10/22 04:26:51;;;;;;;;;;;42.10;51.00;;;;;;5087966;28;19919;-69
2023/10/22 04:29:17;;;;;;;;;;;40.50;52.80;;;;;;5115914;28;19911;-65
2023/10/22 04:31:44;;;;;;;;;;;40.30;53.80;;;;;;5115500;28;19970;-66
2023/10/22 04:34:11;;;;;;;;;;;41.70;52.60;;;;;;5097702;28;19912;-66
2023/10/22 04:36:37;;;;;;;;;;;41.70;51.90;;;;;;5106654;28;20390;-66
2023/10/22 04:39:04;;;;;;;;;;;41.20;51.90;;;;;;5115671;28;19922;-67
2023/10/22 04:41:30;;;;;;;;;;;41.50;52.50;;;;;;5115044;27;19934;-67
2023/10/22 04:43:57;;;;;;;;;;;42.00;52.30;;;;;;5098670;28;19924;-66
2023/10/22 04:46:24;;;;;;;;;;;41.90;51.40;;;;;;5100412;27;19907;-66
2023/10/22 04:48:50;;;;;;;;;;;41.50;52.50;;;;;;5109463;28;19924;-66
2023/10/22 04:51:18;;;;;;;;;;;42.70;51.00;;;;;;5082981;27;19918;-67
2023/10/22 04:53:44;;;;;;;;;;;43.00;51.60;;;;;;5106494;28;19919;-68
2023/10/22 04:56:11;;;;;;;;;;;43.00;51.00;;;;;;5115376;28;19912;-68
2023/10/22 04:58:37;;;;;;;;;;;42.50;51.50;;;;;;5114751;28;19919;-68
2023/10/22 05:01:04;;;;;;;;;;;42.50;50.90;;;;;;5113863;28;19916;-68
2023/10/22 05:03:31;;;;;;;;;;;42.90;50.60;;;;;;5098017;28;19916;-69
2023/10/22 05:05:58;;;;;;;;;;;42.60;51.80;;;;;;5094990;28;19912;-67
2023/10/22 05:08:26;;;;;;;;;;;40.70;53.10;;;;;;5112325;27;19912;-68
2023/10/22 05:10:53;;;;;;;;;;;40.10;53.70;;;;;;5114649;28;19908;-66
2023/10/22 05:13:22;;;;;;;;;;;40.80;53.80;;;;;;5104185;28;20027;-68
2023/10/22 05:15:53;;;;;;;;;;;40.30;53.40;;;;;;5101106;28;20404;-73
2023/10/22 05:18:19;;;;;;;;;;;39.30;55.40;;;;;;5113974;28;19916;-73
2023/10/22 05:20:46;;;;;;;;;;;40.30;54.50;;;;;;5114661;28;20024;-71
2023/10/22 05:23:12;;;;;;;;;;;39.60;55.30;;;;;;5104860;27;20583;-67
2023/10/22 05:25:39;;;;;;;;;;;40.50;54.40;;;;;;5094785;28;19908;-66
2023/10/22 05:28:06;;;;;;;;;;;40.70;53.90;;;;;;5108732;28;19915;-66
2023/10/22 05:30:32;;;;;;;;;;;39.60;54.00;;;;;;5096460;28;19914;-69
2023/10/22 05:33:01;;;;;;;;;;;38.40;55.20;;;;;;5106045;28;19957;-72
2023/10/22 05:35:28;;;;;;;;;;;37.80;55.80;;;;;;5105197;28;20449;-71
2023/10/22 05:37:54;;;;;;;;;;;37.40;56.80;;;;;;5114133;28;19966;-66
2023/10/22 05:40:21;;;;;;;;;;;36.70;56.30;;;;;;5114923;28;19913;-75
2023/10/22 05:42:47;;;;;;;;;;;36.60;56.40;;;;;;5110299;27;19934;-69
2023/10/22 05:45:14;;;;;;;;;;;36.00;57.40;;;;;;5094394;28;19989;-68
2023/10/22 05:47:41;;;;;;;;;;;35.30;57.30;;;;;;5104093;28;19919;-66
2023/10/22 05:50:08;;;;;;;;;;;34.90;59.10;;;;;;5113945;28;19957;-70
2023/10/22 05:52:34;;;;;;;;;;;35.20;57.50;;;;;;5091353;28;19912;-71
2023/10/22 05:55:01;;;;;;;;;;;36.60;58.20;;;;;;5092862;28;19912;-70
2023/10/22 05:57:28;;;;;;;;;;;36.80;55.40;;;;;;5083226;28;20360;-72
2023/10/22 05:59:57;;;;;;;;;;;36.50;54.60;;;;;;5113270;28;19916;-73
2023/10/22 06:02:24;;;;;;;;;;;36.40;54.60;;;;;;5104973;28;20326;-69
2023/10/22 06:04:51;;;;;;;;;;;35.50;55.90;;;;;;5093851;28;19946;-72
2023/10/22 06:07:17;;;;;;;;;;;35.60;55.40;;;;;;5112872;27;20614;-68
2023/10/22 06:09:44;;;;;;;;;;;36.40;54.90;;;;;;5113731;28;19907;-72
2023/10/22 06:12:11;;;;;;;;;;;37.10;54.40;;;;;;5113183;28;19912;-71
2023/10/22 06:14:38;;;;;;;;;;;37.40;53.70;;;;;;5093780;28;19908;-68
2023/10/22 06:17:04;;;;;;;;;;;38.20;52.30;;;;;;5097294;28;19919;-73
2023/10/22 06:19:31;;;;;;;;;;;38.30;52.20;;;;;;5098553;28;19955;-76
2023/10/22 06:21:58;;;;;;;;;;;38.50;52.60;;;;;;5102923;28;19915;-70
2023/10/22 06:24:24;;;;;;;;;;;39.10;52.50;;;;;;5093923;28;19955;-73
2023/10/22 06:26:51;;;;;;;;;;;38.50;52.80;;;;;;5094751;27;19912;-70
2023/10/22 06:29:17;;;;;;;;;;;37.60;54.20;;;;;;5112766;28;20436;-66
2023/10/22 06:31:44;;;;;;;;;;;37.30;53.20;;;;;;5113176;28;19908;-71
2023/10/22 06:34:11;;;;;;;;;;;37.10;53.60;;;;;;5098614;27;20368;-73
2023/10/22 06:36:37;;;;;;;;;;;37.80;54.30;;;;;;5112692;28;19912;-70
2023/10/22 06:39:04;;;;;;;;;;;37.60;53.70;;;;;;5113328;28;19922;-70
2023/10/22 06:41:31;;;;;;;;;;;36.70;54.80;;;;;;5110238;28;19908;-68
2023/10/22 06:43:57;;;;;;;;;;;35.70;56.40;;;;;;5104563;28;20031;-74
2023/10/22 06:46:24;;;;;;;;;;;35.20;58.10;;;;;;5111845;28;20353;-67
2023/10/22 06:48:50;;;;;;;;;;;35.40;57.50;;;;;;5111494;28;19924;-68
2023/10/22 06:51:18;;;;;;;;;;;35.00;56.80;;;;;;5111969;28;20292;-72
2023/10/22 06:53:46;;;;;;;;;;;34.20;58.30;;;;;;5097788;27;20378;-67
2023/10/22 06:56:13;;;;;;;;;;;33.30;59.10;;;;;;5102798;28;19965;-70
2023/10/22 06:58:39;;;;;;;;;;;32.80;59.90;;;;;;5112221;28;19927;-69
2023/10/22 07:01:07;;;;;;;;;;;32.30;60.30;;;;;;5110678;28;19916;-74
2023/10/22 07:03:38;;;;;;;;;;;31.40;61.50;;;;;;5099005;28;19926;-73
2023/10/22 07:06:05;;;;;;;;;;;30.80;62.70;;;;;;5101150;28;19968;-73
2023/10/22 07:08:32;;;;;;;;;;;30.30;62.80;;;;;;5112380;28;19919;-72
2023/10/22 07:10:59;;;;;;;;;;;30.10;62.70;;;;;;5111398;28;19912;-66
2023/10/22 07:13:25;;;;;;;;;;;29.90;62.60;;;;;;5100885;28;19938;-65
2023/10/22 07:15:53;;;;;;;;;;;29.50;62.70;;;;;;5092038;28;19908;-68
2023/10/22 07:18:20;;;;;;;;;;;29.10;63.00;;;;;;5109571;28;20249;-73
2023/10/22 07:20:47;;;;;;;;;;;28.70;63.10;;;;;;5111415;28;19912;-72
2023/10/22 07:23:13;;;;;;;;;;;28.30;64.00;;;;;;5110234;28;19989;-68
2023/10/22 07:25:40;;;;;;;;;;;27.90;64.30;;;;;;5111677;28;20369;-68
2023/10/22 07:28:06;;;;;;;;;;;27.60;65.10;;;;;;5110795;28;19962;-67
2023/10/22 07:30:33;;;;;;;;;;;27.10;66.10;;;;;;5091688;28;19970;-68
2023/10/22 07:33:00;;;;;;;;;;;27.00;64.00;;;;;;5107948;28;20014;-68
2023/10/22 07:35:26;;;;;;;;;;;27.00;65.40;;;;;;5111488;28;20360;-72
2023/10/22 07:37:53;;;;;;;;;;;26.80;65.40;;;;;;5111983;28;19912;-72
2023/10/22 07:40:20;;;;;;;;;;;26.50;66.90;;;;;;5111918;28;19980;-67
2023/10/22 07:42:50;;;;;;;;;;;26.10;68.00;;;;;;5109634;27;19919;-67
2023/10/22 07:45:17;;;;;;;;;;;25.90;69.10;;;;;;5110886;28;19974;-69
2023/10/22 07:47:43;;;;;;;;;;;25.90;68.70;;;;;;5111705;28;19912;-69
2023/10/22 07:50:10;;;;;;;;;;;25.80;68.90;;;;;;5111642;28;19912;-69
2023/10/22 07:52:37;;;;;;;;;;;25.70;69.10;;;;;;5106307;28;19963;-71
2023/10/22 07:55:06;;;;;;;;;;;25.40;69.00;;;;;;5111384;28;19927;-71
2023/10/22 07:57:33;;;;;;;;;;;25.40;70.60;;;;;;5111621;27;19933;-71
2023/10/22 08:00:00;;;;;;;;;;;25.40;69.80;;;;;;5115632;28;19916;-69
2023/10/22 08:02:27;;;;;;;;;;;25.40;68.80;;;;;;5105508;28;19916;-69
2023/10/22 08:04:53;;;;;;;;;;;25.20;68.70;;;;;;5094824;28;19915;-71
2023/10/22 08:07:21;;;;;;;;;;;24.90;68.90;;;;;;5095510;28;19911;-68
2023/10/22 08:09:47;;;;;;;;;;;24.80;69.70;;;;;;5114589;28;19964;-71
2023/10/22 08:12:14;;;;;;;;;;;24.60;66.70;;;;;;5114418;28;20352;-68
2023/10/22 08:14:41;;;;;;;;;;;24.70;65.20;;;;;;5113069;27;19912;-74
2023/10/22 08:17:07;;;;;;;;;;;24.60;60.20;;;;;;5115695;28;20380;-69
2023/10/22 08:19:34;;;;;;;;;;;24.60;50.70;;;;;;5109121;27;19916;-70
2023/10/22 08:22:01;;;;;;;;;;;24.80;50.40;;;;;;5102526;28;19919;-68
2023/10/22 08:24:27;;;;;;;;;;;25.00;47.20;;;;;;5111527;28;20014;-67
2023/10/22 08:26:54;;;;;;;;;;;25.20;46.50;;;;;;5114847;28;19914;-71
2023/10/22 08:29:20;;;;;;;;;;;25.30;46.70;;;;;;5115558;27;20360;-73
2023/10/22 08:31:47;;;;;;;;;;;25.30;46.20;;;;;;5114525;28;19953;-73
2023/10/22 08:34:14;;;;;;;;;;;25.30;46.00;;;;;;5110577;27;20398;-70
2023/10/22 08:36:40;;;;;;;;;;;25.40;45.40;;;;;;5118226;27;19933;-67
2023/10/22 08:39:08;;;;;;;;;;;25.50;45.30;;;;;;5128819;27;20409;-70
2023/10/22 08:41:37;;;;;;;;;;;25.40;45.10;;;;;;5125551;27;19928;-68
2023/10/22 08:44:06;;;;;;;;;;;25.40;45.20;;;;;;5126510;27;19926;-69
2023/10/22 08:46:36;;;;;;;;;;;25.40;45.50;;;;;;5117098;27;19908;-72
2023/10/22 08:49:05;;;;;;;;;;;25.40;46.20;;;;;;5106259;27;20295;-69
2023/10/22 08:51:32;;;;;;;;;;;25.30;45.90;;;;;;5114571;28;19961;-68
2023/10/22 08:54:00;;;;;;;;;;;25.30;46.50;;;;;;5109605;28;19973;-68
2023/10/22 08:56:27;;;;;;;;;;;25.30;46.60;;;;;;5114304;28;19934;-69
2023/10/22 08:58:54;;;;;;;;;;;25.20;46.70;;;;;;5114830;28;19908;-73
2023/10/22 09:01:21;;;;;;;;;;;25.20;46.90;;;;;;5106760;28;19951;-71
2023/10/22 09:03:47;;;;;;;;;;;25.10;47.00;;;;;;5105013;28;19920;-71
2023/10/22 09:06:15;;;;;;;;;;;25.10;47.20;;;;;;5107557;28;19912;-67
2023/10/22 09:08:45;;;;;;;;;;;25.10;47.40;;;;;;5114495;28;19911;-71
2023/10/22 09:11:13;;;;;;;;;;;25.00;48.00;;;;;;5111120;28;19915;-68
2023/10/22 09:13:39;;;;;;;;;;;24.90;48.20;;;;;;5094147;28;20257;-71
2023/10/22 09:16:06;;;;;;;;;;;24.80;48.40;;;;;;5113416;28;20023;-71
2023/10/22 09:18:33;;;;;;;;;;;24.80;48.10;;;;;;5110766;28;19937;-70
2023/10/22 09:21:06;;;;;;;;;;;24.70;48.10;;;;;;5102024;28;19998;-73
2023/10/22 09:23:33;;;;;;;;;;;24.70;48.60;;;;;;5097754;28;19916;-74
2023/10/22 09:25:59;;;;;;;;;;;24.60;48.30;;;;;;5112427;28;19916;-74
2023/10/22 09:28:27;;;;;;;;;;;24.60;48.50;;;;;;5087856;28;19911;-74
2023/10/22 09:30:59;;;;;;;;;;;24.50;48.70;;;;;;5109860;28;20474;-70
2023/10/22 09:33:33;;;;;;;;;;;24.40;49.40;;;;;;5107416;28;20018;-73
2023/10/22 09:36:00;;;;;;;;;;;24.30;49.60;;;;;;5105455;28;19999;-71
2023/10/22 09:38:42;;;;;;;;;;;24.20;49.70;;;;;;5094312;28;19912;-73
2023/10/22 09:41:11;;;;;;;;;;;24.10;49.60;;;;;;5095161;28;19968;-72
2023/10/22 09:43:38;;;;;;;;;;;24.10;50.30;;;;;;5098303;28;19931;-68
2023/10/22 09:46:07;;;;;;;;;;;24.00;49.70;;;;;;5113849;28;19912;-70
2023/10/22 09:48:35;;;;;;;;;;;23.90;50.50;;;;;;5114611;28;19966;-71
2023/10/22 09:51:06;;;;;;;;;;;23.90;50.50;;;;;;5113772;28;19908;-67
2023/10/22 09:53:36;;;;;;;;;;;23.80;50.60;;;;;;5097092;28;19919;-70
2023/10/22 09:56:06;;;;;;;;;;;23.80;51.20;;;;;;5092996;28;20768;-72
2023/10/22 09:58:34;;;;;;;;;;;23.70;51.10;;;;;;5093846;28;19919;-69
2023/10/22 10:01:01;;;;;;;;;;;23.70;51.20;;;;;;5094222;28;20376;-69
2023/10/22 10:03:28;;;;;;;;;;;23.60;51.60;;;;;;5094046;28;20011;-72
2023/10/22 10:05:55;;;;;;;;;;;23.60;51.70;;;;;;5092925;28;20304;-71
2023/10/22 10:08:22;;;;;;;;;;;23.60;51.80;;;;;;5108325;28;19912;-68
2023/10/22 10:10:49;;;;;;;;;;;23.60;52.00;;;;;;5107403;28;19951;-72
2023/10/22 10:13:16;;;;;;;;;;;23.50;52.50;;;;;;5105954;28;20445;-68
2023/10/22 10:15:43;;;;;;;;;;;23.50;52.40;;;;;;5107859;27;20006;-70
2023/10/22 10:18:10;;;;;;;;;;;23.40;52.40;;;;;;5104544;28;19912;-72
2023/10/22 10:20:39;;;;;;;;;;;23.30;52.80;;;;;;5104449;28;19918;-65
2023/10/22 10:23:08;;;;;;;;;;;23.30;52.80;;;;;;5107327;28;19916;-72
2023/10/22 10:25:35;;;;;;;;;;;23.10;53.30;;;;;;5109400;28;19926;-68
2023/10/22 10:28:06;;;;;;;;;;;23.10;54.60;;;;;;5109472;28;19916;-70
2023/10/22 10:30:33;;;;;;;;;;;23.00;55.00;;;;;;5109546;28;19912;-74
2023/10/22 10:33:00;;;;;;;;;;;22.90;55.50;;;;;;5110227;28;19919;-73
2023/10/22 10:35:28;;;;;;;;;;;22.80;56.30;;;;;;5111815;28;19918;-71
2023/10/22 10:38:12;;;;;;;;;;;22.70;56.40;;;;;;5109026;28;19938;-72
2023/10/22 10:41:05;;;;;;;;;;;22.60;56.10;;;;;;5110366;28;19911;-73
2023/10/22 10:43:49;;;;;;;;;;;22.50;56.70;;;;;;5101319;28;19927;-75
2023/10/22 10:46:26;;;;;;;;;;;22.40;57.50;;;;;;5109215;28;19916;-72
2023/10/22 10:48:53;;;;;;;;;;;22.30;57.30;;;;;;5112811;28;19919;-71
2023/10/22 10:51:21;;;;;;;;;;;22.30;57.60;;;;;;5112868;28;19930;-67
2023/10/22 10:54:12;;;;;;;;;;;22.20;57.80;;;;;;5095166;28;20292;-70
2023/10/22 10:56:46;;;;;;;;;;;22.20;58.50;;;;;;5108883;28;19908;-75
2023/10/22 10:59:24;;;;;;;;;;;22.00;58.60;;;;;;5112757;28;20546;-73
2023/10/22 11:02:01;;;;;;;;;;;22.00;58.60;;;;;;5099184;28;19912;-69
2023/10/22 11:04:31;;;;;;;;;;;21.90;59.30;;;;;;5110521;28;20369;-74
2023/10/22 11:06:58;;;;;;;;;;;21.80;59.60;;;;;;5112465;28;19911;-70
2023/10/22 11:09:24;;;;;;;;;;;21.70;60.10;;;;;;5112101;28;19908;-72
2023/10/22 11:11:58;;;;;;;;;;;21.60;60.30;;;;;;5111101;28;19904;-69
2023/10/22 11:14:25;;;;;;;;;;;21.50;60.60;;;;;;5093938;28;20353;-74
2023/10/22 11:16:53;;;;;;;;;;;21.40;61.60;;;;;;5110528;28;20271;-71
2023/10/22 11:19:27;;;;;;;;;;;21.30;62.30;;;;;;5112354;28;19953;-71
2023/10/22 11:21:56;;;;;;;;;;;21.30;62.90;;;;;;5093842;28;19908;-71
2023/10/22 11:24:30;;;;;;;;;;;21.20;63.40;;;;;;5111921;28;20466;-72
2023/10/22 11:26:57;;;;;;;;;;;21.00;62.90;;;;;;5096968;28;19916;-68
2023/10/22 11:29:24;;;;;;;;;;;20.90;63.60;;;;;;5107269;28;20393;-69
2023/10/22 11:31:55;;;;;;;;;;;20.90;63.50;;;;;;5111125;28;20276;-71
2023/10/22 11:34:22;;;;;;;;;;;20.90;61.60;;;;;;5094299;28;19918;-71
2023/10/22 11:36:56;;;;;;;;;;;20.80;62.00;;;;;;5092107;28;19909;-71
2023/10/22 11:39:23;;;;;;;;;;;20.90;62.60;;;;;;5108538;28;20406;-74
2023/10/22 11:42:00;;;;;;;;;;;20.80;61.50;;;;;;5111216;28;20298;-75
2023/10/22 11:44:28;;;;;;;;;;;20.90;61.30;;;;;;5111304;28;19931;-70
2023/10/22 11:46:54;;;;;;;;;;;20.90;61.90;;;;;;5093216;28;19914;-67
2023/10/22 11:49:21;;;;;;;;;;;20.90;62.90;;;;;;5111636;28;19926;-74
2023/10/22 11:51:48;;;;;;;;;;;20.80;62.20;;;;;;5110100;28;20349;-73
2023/10/22 11:54:14;;;;;;;;;;;20.80;63.00;;;;;;5110237;28;19907;-73
2023/10/22 11:56:41;;;;;;;;;;;20.80;62.90;;;;;;5112724;28;19912;-71
2023/10/22 11:59:08;;;;;;;;;;;20.70;63.10;;;;;;5112253;28;19931;-73
2023/10/22 12:01:34;;;;;;;;;;;20.70;62.90;;;;;;5099893;28;19948;-72
2023/10/22 12:04:03;;;;;;;;;;;20.60;62.60;;;;;;5111758;28;19911;-73
2023/10/22 12:06:30;;;;;;;;;;;20.60;63.30;;;;;;5112138;28;20336;-72
2023/10/22 12:08:57;;;;;;;;;;;20.60;62.80;;;;;;5107860;28;19923;-69
2023/10/22 12:11:23;;;;;;;;;;;20.60;62.90;;;;;;5106534;28;19908;-72
2023/10/22 12:13:50;;;;;;;;;;;20.60;62.50;;;;;;5111317;28;19954;-73
2023/10/22 12:16:16;;;;;;;;;;;20.50;63.40;;;;;;5112071;28;19916;-73
2023/10/22 12:18:43;;;;;;;;;;;20.50;63.30;;;;;;5111996;28;19908;-77
2023/10/22 12:21:10;;;;;;;;;;;20.50;63.40;;;;;;5111825;28;19951;-71
2023/10/22 12:23:36;;;;;;;;;;;20.50;64.00;;;;;;5104802;28;19916;-66
2023/10/22 12:26:08;;;;;;;;;;;20.40;64.50;;;;;;5110335;28;20379;-71
2023/10/22 12:28:35;;;;;;;;;;;20.40;65.30;;;;;;5093021;28;19912;-71
2023/10/22 12:31:02;;;;;;;;;;;20.30;66.00;;;;;;5091811;28;19908;-71
2023/10/22 12:33:29;;;;;;;;;;;20.30;66.20;;;;;;5091304;28;19916;-67
2023/10/22 12:35:55;;;;;;;;;;;20.20;66.20;;;;;;5091278;28;20289;-73
2023/10/22 12:38:22;;;;;;;;;;;20.10;66.40;;;;;;5091469;28;19908;-74
2023/10/22 12:40:49;;;;;;;;;;;20.10;66.70;;;;;;5099614;28;19953;-74
2023/10/22 12:43:15;;;;;;;;;;;20.00;66.70;;;;;;5105881;28;19916;-72
2023/10/22 12:45:42;;;;;;;;;;;19.90;66.30;;;;;;5093802;28;19912;-74
2023/10/22 12:48:09;;;;;;;;;;;19.90;67.10;;;;;;5095158;28;19919;-71
2023/10/22 12:50:36;;;;;;;;;;;19.90;66.80;;;;;;5095146;28;19916;-70
2023/10/22 12:53:04;;;;;;;;;;;19.80;66.90;;;;;;5084682;28;19908;-70
2023/10/22 12:55:31;;;;;;;;;;;19.80;67.50;;;;;;5106245;28;20434;-71
2023/10/22 12:57:57;;;;;;;;;;;19.80;68.00;;;;;;5095034;28;20268;-74
2023/10/22 13:00:24;;;;;;;;;;;19.70;68.40;;;;;;5094774;28;19908;-70
2023/10/22 13:02:51;;;;;;;;;;;19.60;68.50;;;;;;5111599;28;19920;-71
2023/10/22 13:05:18;;;;;;;;;;;19.60;69.00;;;;;;5115395;28;19916;-72
2023/10/22 13:07:44;;;;;;;;;;;19.50;68.80;;;;;;5115588;28;19908;-71
2023/10/22 13:10:12;;;;;;;;;;;19.50;69.00;;;;;;5115302;28;19911;-66
2023/10/22 13:12:39;;;;;;;;;;;19.40;69.60;;;;;;5114683;28;20417;-71
2023/10/22 13:15:06;;;;;;;;;;;19.30;70.00;;;;;;5115411;28;19911;-71
2023/10/22 13:17:35;;;;;;;;;;;19.30;70.50;;;;;;5114915;28;19930;-71
2023/10/22 13:20:08;;;;;;;;;;;19.20;71.00;;;;;;5113776;28;20010;-71
2023/10/22 13:22:35;;;;;;;;;;;19.20;71.50;;;;;;5113380;28;19907;-72
2023/10/22 13:25:02;;;;;;;;;;;19.10;71.60;;;;;;5094282;28;19922;-71
2023/10/22 13:27:29;;;;;;;;;;;19.10;71.70;;;;;;5094712;28;19987;-70
2023/10/22 13:29:55;;;;;;;;;;;19.00;71.70;;;;;;5095710;28;19916;-72
2023/10/22 13:32:22;;;;;;;;;;;19.00;71.60;;;;;;5112332;28;19907;-69
2023/10/22 13:34:49;;;;;;;;;;;18.90;71.80;;;;;;5095076;28;19916;-70
2023/10/22 13:37:17;;;;;;;;;;;18.90;72.50;;;;;;5097353;28;19912;-69
2023/10/22 13:39:47;;;;;;;;;;;18.80;72.30;;;;;;5114751;28;19907;-74
2023/10/22 13:42:15;;;;;;;;;;;18.80;72.00;;;;;;5114722;28;19915;-67
2023/10/22 13:44:43;;;;;;;;;;;18.70;72.60;;;;;;5096671;28;19916;-72
2023/10/22 13:47:10;;;;;;;;;;;18.60;72.60;;;;;;5114949;28;20017;-73
2023/10/22 13:49:37;;;;;;;;;;;18.60;72.40;;;;;;5114432;28;19922;-75
2023/10/22 13:52:04;;;;;;;;;;;18.60;72.40;;;;;;5100810;28;19912;-69
2023/10/22 13:54:30;;;;;;;;;;;18.60;72.40;;;;;;5094602;28;19916;-72
2023/10/22 13:56:57;;;;;;;;;;;18.60;72.50;;;;;;5102562;28;19915;-71
2023/10/22 13:59:24;;;;;;;;;;;18.50;72.10;;;;;;5094018;28;20285;-72
2023/10/22 14:01:50;;;;;;;;;;;18.50;71.40;;;;;;5106038;28;19907;-69
2023/10/22 14:04:17;;;;;;;;;;;18.50;72.40;;;;;;5115022;28;19916;-72
2023/10/22 14:06:45;;;;;;;;;;;18.60;72.60;;;;;;5114716;28;19914;-71
2023/10/22 14:09:11;;;;;;;;;;;18.60;72.30;;;;;;5114653;28;20341;-73
2023/10/22 14:11:38;;;;;;;;;;;18.60;72.20;;;;;;5106482;28;19965;-71
2023/10/22 14:14:06;;;;;;;;;;;18.50;72.40;;;;;;5094012;28;19912;-72
2023/10/22 14:16:33;;;;;;;;;;;18.50;70.90;;;;;;5094566;28;19908;-74
2023/10/22 14:19:00;;;;;;;;;;;18.50;69.80;;;;;;5095144;28;19912;-72